首页
METAR-TAF:

METAR-TAF

机场 :

敖德薩國際機場

敖德薩, 乌克兰

纬度: 46-26N, 经度: 030-46E, 海拔: 42米

当前天气观测

该预报发布于38分钟前的11:00 UTC
风速10节,风向西,在西之间变化
温度 19°C
湿度 24%
气压 1021 hPa
能见度10公里或以上
1500米以下无云,无积雨云

METAR: UKOO 191100Z 28005MPS 260V360 CAVOK 19/M02 Q1021 R16/090060 NOSIG

时间: 14:38 (11:38 UTC)

预报

该预报发布于6小时和31分钟前的05:07 UTC
预报有效从19日的 06点(UTC)到 20日的 06点(UTC)
风速10节,风向西转西南,有时为21节阵风
能見度: 6000
散云层高于2000英尺
散云层高于2500英尺, 积雨云.
成为
从 19日的 18点(UTC)到 19日的 19点(UTC)
风速6节,风向西转西北
能見度: 2100
轻雾

TAF: UKOO 190507Z 1906/2006 25005G11MPS 6000 SCT020 SCT025CB BECMG 1918/1919 30003MPS 2100 BR

超过4000个机场的气象观测和天气预报(METAR&TAF报告)。

可查询的气象台以黄色和红色小点在地图上表示。

将鼠标移到小点上方,可查看气象台名称。

然后点击查看天气观测和预报。

如需切换地图:点击带黑十字的绿色按钮放大地图;点击带横线的绿色按钮缩小地图;或者点击绿色箭头查看邻近地区的地图。


METAR-TAF: